Terminal Aerodrome Forecast
Issued by NWS

Home | Current Version | Previous Version | Text Only | Print | Product List | Glossary On
Versions: 1 2 3 4 5 6 7 8 9 10 11 12 13 14 15
000
FTUS43 KDMX 250520
TAFOTM
TAF
KOTM 250520Z 2506/2606 15007KT P6SM BKN090
     FM250800 17008KT 5SM -TSRA BR SCT020 OVC040CB
     FM251400 24007KT P6SM -SHRA BKN060
     FM251700 28011KT P6SM OVC060
     FM260400 29008KT P6SM SCT250=

USA.gov is the U.S. government's official web portal to all federal, state and local government web resources and services.